Time;durP1;ratioP1;P1;durP2;ratioP2;P2;SDS_P1;SDS_P2;PMS_P1;PMS_P2;Temp;Humidity;BMP_temperature;BMP_pressure;BME280_temperature;BME280_humidity;BME280_pressure;Samples;Min_cycle;Max_cycle;Signal;HPM_P1;HPM_P2
2021/09/21 00:00:31;;;;;;;10.35;5.97;;;;;;;;;;5069825;28;20277;-71
2021/09/21 00:02:56;;;;;;;9.30;6.17;;;;;;;;;;5068531;28;20028;-71
2021/09/21 00:05:22;;;;;;;9.75;6.68;;;;;;;;;;5069758;28;20739;-71
2021/09/21 00:07:47;;;;;;;14.95;5.75;;;;;;;;;;5067615;28;20017;-70
2021/09/21 00:10:12;;;;;;;9.18;6.90;;;;;;;;;;5068416;28;20103;-71
2021/09/21 00:12:38;;;;;;;10.90;6.07;;;;;;;;;;5063852;28;20024;-70
2021/09/21 00:15:03;;;;;;;8.95;6.43;;;;;;;;;;5059779;28;20504;-71
2021/09/21 00:17:28;;;;;;;9.18;6.03;;;;;;;;;;5062148;28;20024;-71
2021/09/21 00:19:54;;;;;;;14.85;7.22;;;;;;;;;;5064208;28;20267;-71
2021/09/21 00:22:19;;;;;;;9.73;6.47;;;;;;;;;;5067252;28;20016;-71
2021/09/21 00:24:44;;;;;;;11.73;6.93;;;;;;;;;;5073060;28;20294;-71
2021/09/21 00:27:09;;;;;;;11.43;6.47;;;;;;;;;;5066755;28;20266;-71
2021/09/21 00:29:34;;;;;;;10.50;6.40;;;;;;;;;;5071636;28;20054;-71
2021/09/21 00:32:00;;;;;;;10.98;7.00;;;;;;;;;;5068189;28;20016;-71
2021/09/21 00:34:38;;;;;;;7.68;5.80;;;;;;;;;;5073221;28;20465;-71
2021/09/21 00:37:04;;;;;;;14.15;7.10;;;;;;;;;;5073138;28;20066;-71
2021/09/21 00:39:29;;;;;;;10.90;6.72;;;;;;;;;;5073220;28;20111;-71
2021/09/21 00:41:55;;;;;;;9.05;6.43;;;;;;;;;;5072830;28;20020;-71
2021/09/21 00:44:21;;;;;;;9.18;5.90;;;;;;;;;;5072788;28;20421;-71
2021/09/21 00:46:46;;;;;;;11.98;6.78;;;;;;;;;;5063313;28;20021;-70
2021/09/21 00:49:11;;;;;;;12.98;7.38;;;;;;;;;;5065790;28;20108;-71
2021/09/21 00:51:36;;;;;;;9.47;6.37;;;;;;;;;;5068240;28;20016;-70
2021/09/21 00:54:02;;;;;;;10.70;6.40;;;;;;;;;;5068433;28;20267;-70
2021/09/21 00:56:27;;;;;;;8.50;6.10;;;;;;;;;;5068775;28;20337;-71
2021/09/21 00:58:52;;;;;;;8.63;6.37;;;;;;;;;;5067807;28;20068;-71
2021/09/21 01:01:17;;;;;;;13.68;6.47;;;;;;;;;;5072661;28;20781;-70
2021/09/21 01:03:42;;;;;;;11.70;6.97;;;;;;;;;;5072307;28;20120;-71
2021/09/21 01:06:08;;;;;;;14.43;6.47;;;;;;;;;;5072150;28;20278;-71
2021/09/21 01:08:33;;;;;;;12.15;6.60;;;;;;;;;;5067338;28;20311;-71
2021/09/21 01:10:58;;;;;;;13.90;6.57;;;;;;;;;;5058101;28;20051;-71
2021/09/21 01:13:23;;;;;;;9.27;6.17;;;;;;;;;;5063530;28;20067;-71
2021/09/21 01:15:48;;;;;;;8.60;6.17;;;;;;;;;;5067868;28;20267;-71
2021/09/21 01:18:14;;;;;;;9.07;6.07;;;;;;;;;;5069721;28;20328;-71
2021/09/21 01:20:39;;;;;;;10.63;6.80;;;;;;;;;;5072056;28;20032;-71
2021/09/21 01:23:05;;;;;;;10.43;5.90;;;;;;;;;;5059347;28;20291;-71
2021/09/21 01:25:31;;;;;;;10.15;5.72;;;;;;;;;;5072464;28;20017;-71
2021/09/21 01:27:56;;;;;;;7.97;5.90;;;;;;;;;;5071771;28;20029;-71
2021/09/21 01:30:21;;;;;;;8.05;4.93;;;;;;;;;;5071899;28;20517;-71
2021/09/21 01:32:46;;;;;;;11.20;5.13;;;;;;;;;;5070773;28;20549;-71
2021/09/21 01:35:12;;;;;;;12.48;5.60;;;;;;;;;;5071280;28;20285;-71
2021/09/21 01:37:39;;;;;;;9.13;4.93;;;;;;;;;;5072073;28;20024;-70
2021/09/21 01:40:04;;;;;;;10.20;5.40;;;;;;;;;;5071702;28;20024;-70
2021/09/21 01:42:30;;;;;;;8.38;5.15;;;;;;;;;;5071482;28;20420;-70
2021/09/21 01:44:55;;;;;;;10.48;5.03;;;;;;;;;;5071494;28;20045;-71
2021/09/21 01:47:21;;;;;;;12.70;5.53;;;;;;;;;;5071223;28;20096;-71
2021/09/21 01:52:36;;;;;;;11.98;5.32;;;;;;;;;;5071597;28;20070;-71
2021/09/21 02:00:19;;;;;;;12.82;5.03;;;;;;;;;;5071351;28;20035;-71
2021/09/21 02:02:44;;;;;;;9.95;5.40;;;;;;;;;;5068471;28;20025;-70
2021/09/21 02:05:09;;;;;;;12.53;5.63;;;;;;;;;;5059582;28;20059;-71
2021/09/21 02:07:35;;;;;;;16.77;5.05;;;;;;;;;;5071474;28;20308;-70
2021/09/21 02:10:01;;;;;;;10.30;5.00;;;;;;;;;;5071194;28;20051;-71
2021/09/21 02:12:26;;;;;;;12.57;5.28;;;;;;;;;;5070073;28;20078;-71
2021/09/21 02:14:52;;;;;;;8.75;5.00;;;;;;;;;;5070735;28;20028;-71
2021/09/21 02:17:17;;;;;;;8.57;5.05;;;;;;;;;;5069527;28;20126;-71
2021/09/21 02:19:42;;;;;;;11.20;4.90;;;;;;;;;;5066106;28;20025;-71
2021/09/21 02:22:07;;;;;;;9.65;4.90;;;;;;;;;;5070126;28;20835;-71
2021/09/21 02:24:33;;;;;;;7.47;4.45;;;;;;;;;;5065014;28;20731;-71
2021/09/21 02:26:58;;;;;;;7.60;4.97;;;;;;;;;;5063292;28;20020;-71
2021/09/21 02:29:23;;;;;;;10.32;4.63;;;;;;;;;;5062751;28;20613;-70
2021/09/21 02:31:48;;;;;;;7.15;4.82;;;;;;;;;;5067144;28;20100;-71
2021/09/21 02:34:14;;;;;;;6.63;4.68;;;;;;;;;;5066624;28;20027;-70
2021/09/21 02:36:41;;;;;;;10.53;4.53;;;;;;;;;;5070640;28;20032;-70
2021/09/21 02:39:07;;;;;;;14.07;5.20;;;;;;;;;;5070570;28;20294;-71
2021/09/21 02:41:32;;;;;;;9.98;4.47;;;;;;;;;;5070870;28;20526;-71
2021/09/21 02:43:57;;;;;;;8.07;4.77;;;;;;;;;;5070114;28;20032;-71
2021/09/21 02:46:23;;;;;;;9.03;4.80;;;;;;;;;;5070685;28;20269;-71
2021/09/21 02:48:48;;;;;;;13.13;5.93;;;;;;;;;;5065918;28;20777;-71
2021/09/21 02:51:13;;;;;;;8.87;4.40;;;;;;;;;;5065049;28;20263;-71
2021/09/21 02:53:38;;;;;;;6.13;4.57;;;;;;;;;;5067859;28;20267;-70
2021/09/21 02:56:03;;;;;;;7.33;4.73;;;;;;;;;;5068856;28;20415;-71
2021/09/21 02:58:29;;;;;;;6.68;4.30;;;;;;;;;;5134542;23;20316;-67
2021/09/21 03:00:56;;;;;;;6.07;4.15;;;;;;;;;;5047810;28;20076;-67
2021/09/21 03:03:23;;;;;;;8.70;4.40;;;;;;;;;;5050137;28;20457;-66
2021/09/21 03:05:57;;;;;;;9.85;5.45;;;;;;;;;;5048788;28;20033;-66
2021/09/21 03:08:23;;;;;;;10.02;4.70;;;;;;;;;;5050453;28;20079;-67
2021/09/21 03:19:00;;;;;;;12.70;4.97;;;;;;;;;;5049794;28;20036;-66
2021/09/21 03:21:25;;;;;;;8.05;4.75;;;;;;;;;;5049788;28;20017;-66
2021/09/21 03:23:51;;;;;;;10.48;4.63;;;;;;;;;;5049406;28;20028;-66
2021/09/21 03:26:16;;;;;;;16.20;5.57;;;;;;;;;;5049464;28;20468;-66
2021/09/21 03:28:41;;;;;;;8.93;4.65;;;;;;;;;;5049397;28;20019;-66
2021/09/21 03:31:07;;;;;;;9.15;4.40;;;;;;;;;;5043916;28;20023;-65
2021/09/21 03:33:32;;;;;;;8.35;4.97;;;;;;;;;;5049369;28;20090;-66
2021/09/21 03:35:57;;;;;;;14.48;4.63;;;;;;;;;;5049314;28;20024;-66
2021/09/21 03:38:22;;;;;;;9.13;6.13;;;;;;;;;;5047451;28;20032;-67
2021/09/21 03:40:48;;;;;;;12.03;5.53;;;;;;;;;;5047965;28;20549;-65
2021/09/21 03:43:13;;;;;;;7.32;4.70;;;;;;;;;;5049560;28;20287;-67
2021/09/21 03:45:38;;;;;;;12.63;5.05;;;;;;;;;;5049485;28;20060;-65
2021/09/21 03:48:03;;;;;;;9.35;4.95;;;;;;;;;;5049130;28;20078;-66
2021/09/21 03:50:29;;;;;;;7.90;4.70;;;;;;;;;;5049202;28;20071;-67
2021/09/21 03:52:54;;;;;;;10.50;5.07;;;;;;;;;;5049552;28;20017;-66
2021/09/21 03:55:20;;;;;;;12.30;5.03;;;;;;;;;;5047883;28;20044;-66
2021/09/21 03:57:45;;;;;;;9.60;4.20;;;;;;;;;;5052528;28;20260;-66
2021/09/21 04:00:11;;;;;;;8.32;4.97;;;;;;;;;;5052857;28;20040;-67
2021/09/21 04:02:36;;;;;;;9.55;5.30;;;;;;;;;;5052146;28;20037;-66
2021/09/21 04:05:03;;;;;;;6.60;4.53;;;;;;;;;;5049525;28;20642;-65
2021/09/21 04:07:28;;;;;;;9.07;4.78;;;;;;;;;;5051258;28;20493;-66
2021/09/21 04:09:54;;;;;;;9.13;4.80;;;;;;;;;;5048804;28;20021;-66
2021/09/21 04:12:19;;;;;;;8.70;4.80;;;;;;;;;;5051977;28;20271;-65
2021/09/21 04:14:44;;;;;;;10.57;5.20;;;;;;;;;;5052557;28;20279;-66
2021/09/21 04:17:09;;;;;;;12.80;5.00;;;;;;;;;;5039340;28;20268;-66
2021/09/21 04:19:34;;;;;;;12.73;4.77;;;;;;;;;;5041046;28;20021;-66
2021/09/21 04:22:00;;;;;;;8.63;4.90;;;;;;;;;;5036843;28;20288;-66
2021/09/21 04:24:25;;;;;;;10.63;5.50;;;;;;;;;;5045468;28;20029;-66
2021/09/21 04:26:50;;;;;;;9.00;5.40;;;;;;;;;;5043733;28;20296;-65
2021/09/21 04:29:15;;;;;;;12.32;5.10;;;;;;;;;;5040944;28;20031;-65
2021/09/21 04:31:45;;;;;;;10.00;5.03;;;;;;;;;;5039772;28;20099;-65
2021/09/21 04:34:14;;;;;;;10.27;5.32;;;;;;;;;;5051960;28;20032;-66
2021/09/21 04:36:39;;;;;;;12.32;5.32;;;;;;;;;;5052497;28;20501;-66
2021/09/21 04:39:04;;;;;;;7.35;5.20;;;;;;;;;;5052035;28;20071;-65
2021/09/21 04:41:29;;;;;;;11.02;4.38;;;;;;;;;;5051770;28;20096;-65
2021/09/21 04:43:54;;;;;;;9.63;4.90;;;;;;;;;;5052676;28;20115;-66
2021/09/21 04:46:19;;;;;;;10.67;4.73;;;;;;;;;;5052269;28;20796;-64
2021/09/21 04:48:45;;;;;;;8.20;4.80;;;;;;;;;;5052596;28;20298;-65
2021/09/21 04:51:10;;;;;;;13.05;5.35;;;;;;;;;;5052340;28;20286;-65
2021/09/21 04:53:35;;;;;;;13.53;5.47;;;;;;;;;;5042044;28;20495;-66
2021/09/21 04:56:00;;;;;;;11.67;5.10;;;;;;;;;;5048953;28;20325;-65
2021/09/21 04:58:25;;;;;;;16.52;5.07;;;;;;;;;;5037811;28;20359;-66
2021/09/21 05:00:51;;;;;;;11.23;4.63;;;;;;;;;;5049403;28;20104;-66
2021/09/21 05:03:16;;;;;;;13.40;4.60;;;;;;;;;;5049106;28;20516;-67
2021/09/21 05:05:41;;;;;;;7.57;4.50;;;;;;;;;;5050736;28;20027;-65
2021/09/21 05:08:06;;;;;;;10.18;4.93;;;;;;;;;;5049012;28;20028;-65
2021/09/21 05:10:32;;;;;;;8.25;3.85;;;;;;;;;;5036581;28;20056;-65
2021/09/21 05:12:57;;;;;;;9.43;5.10;;;;;;;;;;5032722;28;20024;-66
2021/09/21 05:15:23;;;;;;;8.43;4.63;;;;;;;;;;5044760;28;20120;-65
2021/09/21 05:17:49;;;;;;;11.07;4.25;;;;;;;;;;5046760;28;20406;-65
2021/09/21 05:20:14;;;;;;;9.02;4.68;;;;;;;;;;5041211;28;20069;-66
2021/09/21 05:22:39;;;;;;;11.45;4.40;;;;;;;;;;5047659;28;20551;-66
2021/09/21 05:25:05;;;;;;;8.35;4.40;;;;;;;;;;5049641;28;20017;-66
2021/09/21 05:27:30;;;;;;;7.72;4.75;;;;;;;;;;5048744;28;20029;-65
2021/09/21 05:29:55;;;;;;;14.20;4.80;;;;;;;;;;5049623;28;20029;-65
2021/09/21 05:32:20;;;;;;;8.95;4.82;;;;;;;;;;5049501;28;20266;-65
2021/09/21 05:34:46;;;;;;;8.57;4.40;;;;;;;;;;5047030;28;20040;-65
2021/09/21 05:37:11;;;;;;;7.85;4.07;;;;;;;;;;5038461;28;20756;-66
2021/09/21 05:39:36;;;;;;;8.57;4.40;;;;;;;;;;5046353;28;20022;-67
2021/09/21 05:42:01;;;;;;;6.82;4.63;;;;;;;;;;5049052;28;20310;-67
2021/09/21 05:44:27;;;;;;;7.65;4.30;;;;;;;;;;5049762;28;20082;-66
2021/09/21 05:46:52;;;;;;;7.43;4.72;;;;;;;;;;5048901;28;20021;-66
2021/09/21 05:49:17;;;;;;;13.18;5.18;;;;;;;;;;5048750;28;20410;-66
2021/09/21 05:51:42;;;;;;;10.13;4.90;;;;;;;;;;5049185;28;20021;-65
2021/09/21 05:54:07;;;;;;;9.38;5.03;;;;;;;;;;5047140;28;20354;-66
2021/09/21 05:56:33;;;;;;;9.95;5.22;;;;;;;;;;5041598;28;20385;-66
2021/09/21 05:58:58;;;;;;;10.68;5.35;;;;;;;;;;5044678;28;20033;-67
2021/09/21 06:01:24;;;;;;;8.90;4.90;;;;;;;;;;5031687;28;20109;-65
2021/09/21 06:03:49;;;;;;;9.80;5.28;;;;;;;;;;5042167;28;20462;-65
2021/09/21 06:06:14;;;;;;;8.77;4.88;;;;;;;;;;5050737;28;20025;-65
2021/09/21 06:08:39;;;;;;;10.57;4.53;;;;;;;;;;5050432;28;20500;-66
2021/09/21 06:11:04;;;;;;;10.25;4.65;;;;;;;;;;5051153;28;20251;-65
2021/09/21 06:13:30;;;;;;;7.97;4.30;;;;;;;;;;5050727;28;20032;-66
2021/09/21 06:15:55;;;;;;;10.80;4.87;;;;;;;;;;5050764;28;20748;-65
2021/09/21 06:18:20;;;;;;;10.60;4.78;;;;;;;;;;5050225;28;20275;-67
2021/09/21 06:20:46;;;;;;;7.10;3.95;;;;;;;;;;5050724;28;20032;-65
2021/09/21 06:23:11;;;;;;;8.48;3.92;;;;;;;;;;5049610;28;20558;-66
2021/09/21 06:25:37;;;;;;;7.35;4.15;;;;;;;;;;5050241;28;20020;-66
2021/09/21 06:28:02;;;;;;;9.75;4.13;;;;;;;;;;5050596;28;20070;-65
2021/09/21 06:30:28;;;;;;;7.70;4.25;;;;;;;;;;5049939;28;20025;-66
2021/09/21 06:32:53;;;;;;;12.52;4.15;;;;;;;;;;5050035;28;20025;-66
2021/09/21 06:35:18;;;;;;;8.40;4.33;;;;;;;;;;5050458;28;20021;-65
2021/09/21 06:37:43;;;;;;;7.00;3.60;;;;;;;;;;5049857;28;20299;-66
2021/09/21 06:40:09;;;;;;;7.10;3.93;;;;;;;;;;5050314;28;20036;-65
2021/09/21 06:42:35;;;;;;;8.98;3.92;;;;;;;;;;5049965;28;20362;-65
2021/09/21 06:45:04;;;;;;;7.85;3.58;;;;;;;;;;5049898;28;20029;-66
2021/09/21 06:47:29;;;;;;;7.35;3.58;;;;;;;;;;5049785;28;20040;-65
2021/09/21 06:49:55;;;;;;;6.13;3.45;;;;;;;;;;5043860;28;20018;-66
2021/09/21 06:52:20;;;;;;;6.70;3.47;;;;;;;;;;5039869;28;20111;-65
2021/09/21 06:54:45;;;;;;;10.45;4.30;;;;;;;;;;5046449;28;20670;-66
2021/09/21 06:57:10;;;;;;;6.50;3.17;;;;;;;;;;5048217;28;20461;-66
2021/09/21 06:59:35;;;;;;;7.20;3.40;;;;;;;;;;5046942;28;20347;-66
2021/09/21 07:02:00;;;;;;;4.23;3.37;;;;;;;;;;5049847;28;20091;-66
2021/09/21 07:04:26;;;;;;;7.60;3.40;;;;;;;;;;5050155;28;20286;-71
2021/09/21 07:06:51;;;;;;;5.70;3.55;;;;;;;;;;5050355;28;20056;-65
2021/09/21 07:09:16;;;;;;;5.80;3.13;;;;;;;;;;5048746;28;20092;-67
2021/09/21 07:11:41;;;;;;;8.15;3.22;;;;;;;;;;5050421;28;20075;-65
2021/09/21 07:14:07;;;;;;;8.82;3.58;;;;;;;;;;5050070;28;20033;-67
2021/09/21 07:16:32;;;;;;;9.52;3.10;;;;;;;;;;5050391;28;20484;-65
2021/09/21 07:18:57;;;;;;;4.20;2.80;;;;;;;;;;5041368;28;20025;-67
2021/09/21 07:21:22;;;;;;;6.47;3.60;;;;;;;;;;5043222;28;20295;-65
2021/09/21 07:23:48;;;;;;;4.13;3.03;;;;;;;;;;5043736;28;20620;-67
2021/09/21 07:26:13;;;;;;;4.65;2.95;;;;;;;;;;5049614;28;20040;-66
2021/09/21 07:28:38;;;;;;;6.80;3.27;;;;;;;;;;5049783;28;20033;-64
2021/09/21 07:31:03;;;;;;;7.57;3.00;;;;;;;;;;5051618;28;20330;-65
2021/09/21 07:33:29;;;;;;;8.00;3.50;;;;;;;;;;5053693;28;20029;-66
2021/09/21 07:35:55;;;;;;;7.20;2.90;;;;;;;;;;5054141;28;20119;-65
2021/09/21 07:38:20;;;;;;;5.50;2.45;;;;;;;;;;5053623;28;20029;-64
2021/09/21 07:40:47;;;;;;;4.37;2.70;;;;;;;;;;5053236;28;20036;-65
2021/09/21 07:43:12;;;;;;;6.72;2.65;;;;;;;;;;5053194;28;20763;-65
2021/09/21 07:45:38;;;;;;;3.97;2.50;;;;;;;;;;5053492;28;20082;-66
2021/09/21 07:48:04;;;;;;;7.00;3.10;;;;;;;;;;5053849;28;20013;-65
2021/09/21 07:50:29;;;;;;;4.88;2.40;;;;;;;;;;5054029;28;20024;-64
2021/09/21 07:52:55;;;;;;;3.83;2.60;;;;;;;;;;5052954;28;20489;-65
2021/09/21 07:55:20;;;;;;;4.82;2.55;;;;;;;;;;5052891;28;20039;-65
2021/09/21 07:57:46;;;;;;;7.45;2.22;;;;;;;;;;5052321;28;20027;-66
2021/09/21 08:00:12;;;;;;;2.67;2.35;;;;;;;;;;5053457;28;20104;-64
2021/09/21 08:02:38;;;;;;;6.95;2.90;;;;;;;;;;5053130;28;20396;-65
2021/09/21 08:05:03;;;;;;;7.35;2.35;;;;;;;;;;5053282;28;20021;-64
2021/09/21 08:07:29;;;;;;;4.10;2.60;;;;;;;;;;5053213;28;20104;-65
2021/09/21 08:09:54;;;;;;;6.57;2.53;;;;;;;;;;5053470;28;20472;-64
2021/09/21 08:12:19;;;;;;;4.88;2.38;;;;;;;;;;5052541;28;20305;-65
2021/09/21 08:14:48;;;;;;;6.10;2.35;;;;;;;;;;5053653;28;20017;-65
2021/09/21 08:17:14;;;;;;;9.67;2.33;;;;;;;;;;5048218;28;20032;-65
2021/09/21 08:19:39;;;;;;;5.82;2.63;;;;;;;;;;5053003;28;20033;-65
2021/09/21 08:22:04;;;;;;;8.03;2.73;;;;;;;;;;5052712;28;20028;-65
2021/09/21 08:24:29;;;;;;;10.47;3.33;;;;;;;;;;5052794;28;20346;-65
2021/09/21 08:26:55;;;;;;;5.72;2.22;;;;;;;;;;5053185;28;20287;-65
2021/09/21 08:29:20;;;;;;;6.63;2.57;;;;;;;;;;5052357;28;20025;-65
2021/09/21 08:31:45;;;;;;;3.97;2.10;;;;;;;;;;5053169;28;20251;-65
2021/09/21 08:34:10;;;;;;;4.80;1.80;;;;;;;;;;5052415;28;20508;-65
2021/09/21 08:36:36;;;;;;;5.47;2.13;;;;;;;;;;5052932;28;20039;-65
2021/09/21 08:39:03;;;;;;;3.65;1.95;;;;;;;;;;5052009;28;20017;-65
2021/09/21 08:41:29;;;;;;;8.85;2.17;;;;;;;;;;5052272;28;20056;-65
2021/09/21 08:43:54;;;;;;;3.22;1.90;;;;;;;;;;5053013;28;20074;-66
2021/09/21 08:46:19;;;;;;;2.53;1.63;;;;;;;;;;5048003;28;20020;-65
2021/09/21 08:48:45;;;;;;;2.13;1.58;;;;;;;;;;5052293;28;20256;-65
2021/09/21 08:51:10;;;;;;;2.97;1.67;;;;;;;;;;5052237;28;20098;-65
2021/09/21 08:53:35;;;;;;;2.70;1.70;;;;;;;;;;5051995;28;20120;-65
2021/09/21 08:56:00;;;;;;;6.25;2.15;;;;;;;;;;5049502;28;20105;-66
2021/09/21 08:58:25;;;;;;;3.43;1.63;;;;;;;;;;5046566;28;20048;-66
2021/09/21 09:00:51;;;;;;;7.70;1.90;;;;;;;;;;5052112;28;20049;-66
2021/09/21 09:03:17;;;;;;;4.10;2.03;;;;;;;;;;5051686;28;20275;-65
2021/09/21 09:05:42;;;;;;;2.95;1.55;;;;;;;;;;5051291;28;20025;-65
2021/09/21 09:08:08;;;;;;;2.85;1.42;;;;;;;;;;5041440;28;20045;-65
2021/09/21 09:10:33;;;;;;;7.45;1.98;;;;;;;;;;5048357;28;20386;-65
2021/09/21 09:12:58;;;;;;;4.38;2.03;;;;;;;;;;5051900;28;20051;-66
2021/09/21 09:15:26;;;;;;;3.20;1.60;;;;;;;;;;5052233;28;20040;-65
2021/09/21 09:17:59;;;;;;;4.28;1.77;;;;;;;;;;5052266;28;20268;-65
2021/09/21 09:20:30;;;;;;;2.97;1.88;;;;;;;;;;5049958;28;20384;-67
2021/09/21 09:22:56;;;;;;;6.32;2.15;;;;;;;;;;5051677;28;20033;-67
2021/09/21 09:25:24;;;;;;;2.35;1.40;;;;;;;;;;5052031;28;20028;-68
2021/09/21 09:27:49;;;;;;;5.35;1.52;;;;;;;;;;5052288;28;20163;-67
2021/09/21 09:30:16;;;;;;;2.77;1.60;;;;;;;;;;5052074;28;20045;-66
2021/09/21 09:32:46;;;;;;;9.68;1.77;;;;;;;;;;5051530;28;20628;-67
2021/09/21 09:35:20;;;;;;;5.47;1.70;;;;;;;;;;5050931;28;20024;-65
2021/09/21 09:37:45;;;;;;;3.58;2.00;;;;;;;;;;5047789;28;20053;-67
2021/09/21 09:40:11;;;;;;;4.85;1.85;;;;;;;;;;5050330;28;20477;-68
2021/09/21 09:42:39;;;;;;;3.85;1.60;;;;;;;;;;5050619;28;20029;-67
2021/09/21 09:45:05;;;;;;;3.20;1.73;;;;;;;;;;5051040;28;20079;-67
2021/09/21 09:47:30;;;;;;;2.95;1.60;;;;;;;;;;5050952;28;20093;-66
2021/09/21 09:49:56;;;;;;;5.33;1.70;;;;;;;;;;5051359;28;20498;-66
2021/09/21 09:52:21;;;;;;;4.78;2.15;;;;;;;;;;5050413;28;20148;-67
2021/09/21 09:54:47;;;;;;;3.45;2.13;;;;;;;;;;5050667;28;20025;-68
2021/09/21 09:57:14;;;;;;;3.75;2.05;;;;;;;;;;5051101;28;20377;-67
2021/09/21 09:59:41;;;;;;;4.88;2.00;;;;;;;;;;5051025;28;20027;-67
2021/09/21 10:02:06;;;;;;;6.30;1.40;;;;;;;;;;5050763;28;20017;-68
2021/09/21 10:04:31;;;;;;;5.90;2.27;;;;;;;;;;5050638;28;20032;-68
2021/09/21 10:06:57;;;;;;;4.18;1.63;;;;;;;;;;5051174;28;20290;-68
2021/09/21 10:09:22;;;;;;;4.07;1.98;;;;;;;;;;5050956;28;20021;-67
2021/09/21 10:11:49;;;;;;;2.88;1.73;;;;;;;;;;5050418;28;20017;-68
2021/09/21 10:14:16;;;;;;;3.95;2.00;;;;;;;;;;5050466;28;20077;-66
2021/09/21 10:16:45;;;;;;;5.20;1.58;;;;;;;;;;5051048;28;20052;-68
2021/09/21 10:19:17;;;;;;;3.33;1.73;;;;;;;;;;5050305;28;20052;-66
2021/09/21 10:21:45;;;;;;;5.40;1.60;;;;;;;;;;5050860;28;20090;-67
2021/09/21 10:24:11;;;;;;;3.05;1.90;;;;;;;;;;5048866;28;20031;-68
2021/09/21 10:26:41;;;;;;;2.45;1.67;;;;;;;;;;5050377;28;20017;-67
2021/09/21 10:29:07;;;;;;;3.95;2.00;;;;;;;;;;5050697;28;20021;-68
2021/09/21 10:31:34;;;;;;;6.75;2.00;;;;;;;;;;5051071;28;20100;-68
2021/09/21 10:34:09;;;;;;;2.10;1.45;;;;;;;;;;5049837;28;20021;-67
2021/09/21 10:36:43;;;;;;;3.15;2.00;;;;;;;;;;5050468;28;20603;-68
2021/09/21 10:39:10;;;;;;;3.92;2.22;;;;;;;;;;5050896;28;20452;-66
2021/09/21 10:41:50;;;;;;;2.33;1.80;;;;;;;;;;5050273;28;20083;-68
2021/09/21 10:44:16;;;;;;;3.70;1.70;;;;;;;;;;5049336;28;20075;-68
2021/09/21 10:46:45;;;;;;;2.10;1.42;;;;;;;;;;5049533;28;20423;-67
2021/09/21 10:49:21;;;;;;;7.85;1.80;;;;;;;;;;5048987;28;20613;-68
2021/09/21 10:51:47;;;;;;;2.88;1.70;;;;;;;;;;5049549;28;20029;-66
2021/09/21 10:54:13;;;;;;;3.25;2.38;;;;;;;;;;5050709;28;20059;-68
2021/09/21 10:56:39;;;;;;;3.33;1.85;;;;;;;;;;5050207;28;20025;-68
2021/09/21 10:59:13;;;;;;;5.32;1.90;;;;;;;;;;5049542;28;20029;-67
2021/09/21 11:01:45;;;;;;;5.20;1.75;;;;;;;;;;5042650;28;20037;-68
2021/09/21 11:04:10;;;;;;;4.05;2.00;;;;;;;;;;5049775;28;20077;-67
2021/09/21 11:06:41;;;;;;;3.57;2.03;;;;;;;;;;5050029;28;20048;-67
2021/09/21 11:09:07;;;;;;;4.07;2.38;;;;;;;;;;5049653;28;20255;-66
2021/09/21 11:11:35;;;;;;;6.53;1.70;;;;;;;;;;5050078;28;20079;-65
2021/09/21 11:14:00;;;;;;;4.13;1.58;;;;;;;;;;5049934;28;20309;-67
2021/09/21 11:16:25;;;;;;;3.87;1.90;;;;;;;;;;5049397;28;20033;-67
2021/09/21 11:18:56;;;;;;;10.13;2.17;;;;;;;;;;5049620;28;20267;-65
2021/09/21 11:21:21;;;;;;;3.33;1.83;;;;;;;;;;5047343;28;20117;-67
2021/09/21 11:23:46;;;;;;;4.50;1.73;;;;;;;;;;5049724;28;20107;-66
2021/09/21 11:26:13;;;;;;;4.53;1.77;;;;;;;;;;5050075;28;20017;-67
2021/09/21 11:28:42;;;;;;;3.92;1.45;;;;;;;;;;5048991;28;20629;-66
2021/09/21 11:31:08;;;;;;;3.20;1.63;;;;;;;;;;5047251;28;20017;-67
2021/09/21 11:33:35;;;;;;;4.72;1.85;;;;;;;;;;5039261;28;20024;-66
2021/09/21 11:36:05;;;;;;;2.95;1.83;;;;;;;;;;5050137;28;20032;-67
2021/09/21 11:38:32;;;;;;;5.05;1.70;;;;;;;;;;5049859;28;20346;-67
2021/09/21 11:40:57;;;;;;;3.05;1.55;;;;;;;;;;5049497;28;20032;-66
2021/09/21 11:43:23;;;;;;;3.08;1.95;;;;;;;;;;5049044;28;20017;-68
2021/09/21 11:45:49;;;;;;;2.92;1.70;;;;;;;;;;5049695;28;20021;-67
2021/09/21 11:48:15;;;;;;;3.20;2.03;;;;;;;;;;5049158;28;20052;-67
2021/09/21 11:50:41;;;;;;;4.20;1.67;;;;;;;;;;5049590;28;20048;-66
2021/09/21 11:53:07;;;;;;;7.00;1.58;;;;;;;;;;5047077;28;20028;-67
2021/09/21 11:55:34;;;;;;;3.03;1.92;;;;;;;;;;5042385;28;20422;-67
2021/09/21 11:58:00;;;;;;;3.72;2.00;;;;;;;;;;5036906;28;20100;-67
2021/09/21 12:00:32;;;;;;;8.85;2.67;;;;;;;;;;5049114;28;20756;-67
2021/09/21 12:02:59;;;;;;;2.65;1.80;;;;;;;;;;5043082;28;20496;-66
2021/09/21 12:05:24;;;;;;;3.25;1.95;;;;;;;;;;5044125;28;20075;-67
2021/09/21 12:07:50;;;;;;;2.85;1.67;;;;;;;;;;5049257;28;20433;-66
2021/09/21 12:10:16;;;;;;;3.47;2.00;;;;;;;;;;5049061;28;20025;-67
2021/09/21 12:12:42;;;;;;;5.30;1.83;;;;;;;;;;5048038;28;20040;-68
2021/09/21 12:15:08;;;;;;;2.88;1.92;;;;;;;;;;5032436;28;20394;-68
2021/09/21 12:17:40;;;;;;;3.90;1.73;;;;;;;;;;5031740;28;20018;-67
2021/09/21 12:20:06;;;;;;;3.88;2.00;;;;;;;;;;5033332;28;20385;-67
2021/09/21 12:22:31;;;;;;;5.13;2.13;;;;;;;;;;5032456;28;20036;-67
2021/09/21 12:25:09;;;;;;;6.65;2.08;;;;;;;;;;5043718;28;20094;-67
2021/09/21 12:27:36;;;;;;;4.22;2.00;;;;;;;;;;5034368;28;20486;-64
2021/09/21 12:30:01;;;;;;;9.73;2.92;;;;;;;;;;5052763;28;20021;-66
2021/09/21 12:32:26;;;;;;;4.55;1.83;;;;;;;;;;5050833;28;20017;-67
2021/09/21 12:35:02;;;;;;;2.70;1.97;;;;;;;;;;5052225;28;20017;-67
2021/09/21 12:37:34;;;;;;;8.80;2.60;;;;;;;;;;5036350;28;20498;-66
2021/09/21 12:40:00;;;;;;;4.28;1.90;;;;;;;;;;5051953;28;20108;-67
2021/09/21 12:42:25;;;;;;;4.90;1.77;;;;;;;;;;5051553;28;20448;-67
2021/09/21 12:44:50;;;;;;;3.87;2.00;;;;;;;;;;5052129;28;20325;-67
2021/09/21 12:47:16;;;;;;;4.00;1.83;;;;;;;;;;5051708;28;20272;-66
2021/09/21 12:49:42;;;;;;;5.95;2.95;;;;;;;;;;5051366;28;20271;-67
2021/09/21 12:52:08;;;;;;;2.92;1.98;;;;;;;;;;5051585;28;20017;-67
2021/09/21 12:54:33;;;;;;;3.17;2.10;;;;;;;;;;5038097;28;20096;-67
2021/09/21 12:57:00;;;;;;;3.92;2.00;;;;;;;;;;5051902;28;20100;-67
2021/09/21 12:59:26;;;;;;;5.95;2.17;;;;;;;;;;5039485;28;20029;-67
2021/09/21 13:01:53;;;;;;;6.57;2.42;;;;;;;;;;5037501;28;20068;-67
2021/09/21 13:04:18;;;;;;;4.03;2.00;;;;;;;;;;5052020;28;20021;-67
2021/09/21 13:06:45;;;;;;;3.67;2.10;;;;;;;;;;5051883;28;20549;-67
2021/09/21 13:09:10;;;;;;;2.45;1.63;;;;;;;;;;5052061;28;20770;-66
2021/09/21 13:11:35;;;;;;;5.30;2.25;;;;;;;;;;5050956;28;20025;-66
2021/09/21 13:14:01;;;;;;;4.27;2.10;;;;;;;;;;5044089;28;20076;-67
2021/09/21 13:16:26;;;;;;;3.40;1.63;;;;;;;;;;5051364;28;20297;-68
2021/09/21 13:18:52;;;;;;;4.32;2.35;;;;;;;;;;5033910;28;20385;-67
2021/09/21 13:21:18;;;;;;;4.13;1.85;;;;;;;;;;5042708;28;20477;-68
2021/09/21 13:23:43;;;;;;;3.60;2.00;;;;;;;;;;5050630;28;20051;-68
2021/09/21 13:26:09;;;;;;;4.97;2.00;;;;;;;;;;5051860;28;20469;-66
2021/09/21 13:28:34;;;;;;;6.00;2.20;;;;;;;;;;5050309;28;20259;-67
2021/09/21 13:30:59;;;;;;;4.00;1.65;;;;;;;;;;5044768;28;20351;-67
2021/09/21 13:33:25;;;;;;;3.20;1.98;;;;;;;;;;5046543;28;20029;-67
2021/09/21 13:35:50;;;;;;;3.45;1.90;;;;;;;;;;5049975;28;20079;-68
2021/09/21 13:38:15;;;;;;;2.67;1.70;;;;;;;;;;5047285;28;20055;-66
2021/09/21 13:40:41;;;;;;;6.90;2.83;;;;;;;;;;5050033;28;20032;-68
2021/09/21 13:43:07;;;;;;;5.97;1.92;;;;;;;;;;5050487;28;20041;-68
2021/09/21 13:45:32;;;;;;;7.13;2.42;;;;;;;;;;5049945;28;20362;-68
2021/09/21 13:47:58;;;;;;;4.13;1.90;;;;;;;;;;5041653;28;20017;-65
2021/09/21 13:50:24;;;;;;;4.00;1.90;;;;;;;;;;5047577;28;20020;-68
2021/09/21 13:52:51;;;;;;;4.25;1.83;;;;;;;;;;5050398;28;20136;-68
2021/09/21 13:55:16;;;;;;;2.67;1.90;;;;;;;;;;5051232;28;20176;-66
2021/09/21 13:57:41;;;;;;;8.80;2.47;;;;;;;;;;5050639;28;20107;-67
2021/09/21 14:00:10;;;;;;;3.65;2.10;;;;;;;;;;5050675;28;20367;-67
2021/09/21 14:02:35;;;;;;;8.15;2.30;;;;;;;;;;5050071;28;20029;-67
2021/09/21 14:05:00;;;;;;;3.33;1.60;;;;;;;;;;5050580;28;20031;-65
2021/09/21 14:07:25;;;;;;;3.45;1.70;;;;;;;;;;5050679;28;20104;-67
2021/09/21 14:09:51;;;;;;;5.90;2.00;;;;;;;;;;5050715;28;20107;-68
2021/09/21 14:12:16;;;;;;;3.97;1.60;;;;;;;;;;5050596;28;20335;-68
2021/09/21 14:14:42;;;;;;;2.42;1.50;;;;;;;;;;5050357;28;20756;-67
2021/09/21 14:17:07;;;;;;;2.63;1.92;;;;;;;;;;5050438;28;20032;-67
2021/09/21 14:19:33;;;;;;;5.97;2.10;;;;;;;;;;5049019;28;20020;-68
2021/09/21 14:21:58;;;;;;;3.42;1.92;;;;;;;;;;5045956;28;20095;-67
2021/09/21 14:24:31;;;;;;;3.85;2.10;;;;;;;;;;5050027;28;20025;-67
2021/09/21 14:26:58;;;;;;;3.85;2.03;;;;;;;;;;5050544;28;20024;-67
2021/09/21 14:29:24;;;;;;;2.97;1.95;;;;;;;;;;5050359;28;20381;-67
2021/09/21 14:31:49;;;;;;;2.67;1.83;;;;;;;;;;5049800;28;20017;-64
2021/09/21 14:34:15;;;;;;;3.38;1.85;;;;;;;;;;5048966;28;20438;-65
2021/09/21 14:36:41;;;;;;;2.72;1.67;;;;;;;;;;5050035;28;20655;-67
2021/09/21 14:39:06;;;;;;;2.25;1.58;;;;;;;;;;5050155;28;20111;-68
2021/09/21 14:41:32;;;;;;;5.50;2.22;;;;;;;;;;5045732;28;20115;-67
2021/09/21 14:43:57;;;;;;;4.60;1.65;;;;;;;;;;5033009;28;20049;-67
2021/09/21 14:46:24;;;;;;;3.78;1.83;;;;;;;;;;5050202;28;20071;-67
2021/09/21 14:48:50;;;;;;;3.05;1.63;;;;;;;;;;5049163;28;20017;-66